ARDEC Weather Station

Colorado State Home Page USDA/ARS Home Page



Station:CSU - ARDEC
Location:6 mi NE Fort Collins
Elevation:5110
Longitude:105
Latitude:40.6525

ARDEC 5 Minute Data
Date Time Temp RelHum Dewpt Vapor Solar Wind Spd Wind Dir Precip 5 Soil 15 Soil Gust Spd Gust Tim Gust Dir Battery
MST °F %°Fmb ly/min mph °in. °F °F mphMST ° volts
2014-08-1513:15 72.6 49.9 52.8 13.63 0.13 8.6 281 0.00 78.0 74.4 12.5 13:11 298 11.62
2014-08-1513:10 71.9 52.5 53.6 13.99 0.13 10.3 285 0.00 78.1 74.4 14.9 13:05 284 11.63
2014-08-1513:05 71.9 57.9 56.3 15.47 0.16 8.2 299 0.00 78.2 74.3 12.2 13:04 283 11.63
2014-08-1513:00 72.1 56.4 55.7 15.15 0.17 4.9 297 0.00 78.3 74.2 8.0 12:58 252 11.62
2014-08-1512:55 72.0 56.3 55.6 15.10 0.18 5.5 306 0.01 78.4 74.2 8.7 12:50 315 11.61
2014-08-1512:50 72.1 56.1 55.6 15.05 0.17 9.2 308 0.00 78.5 74.1 13.2 12:46 312 11.64
2014-08-1512:45 73.9 50.9 54.6 14.54 0.18 13.8 313 0.00 78.5 74.0 19.4 12:42 331 11.65
2014-08-1512:40 76.9 43.5 53.1 13.70 0.19 13.0 320 0.00 78.5 73.9 20.2 12:36 311 11.66
2014-08-1512:35 81.5 35.3 51.5 12.97 0.22 11.5 309 0.00 78.5 73.8 19.0 12:34 305 11.66
2014-08-1512:30 82.8 30.9 49.0 11.83 0.32 7.3 338 0.00 78.5 73.8 10.1 12:28 339 11.63
2014-08-1512:25 83.2 29.8 48.4 11.55 0.33 7.7 333 0.00 78.4 73.7 9.9 12:22 339 11.66
2014-08-1512:20 84.5 29.8 49.5 12.02 0.46 9.1 345 0.00 78.4 73.6 13.9 12:15 343 11.65
2014-08-1512:15 84.2 30.6 50.0 12.27 1.33 8.8 355 0.00 78.3 73.5 11.5 12:14 340 11.65
2014-08-1512:10 82.3 31.5 49.2 11.87 0.91 9.2 345 0.00 78.3 73.4 12.2 12:07 341 11.65
2014-08-1512:05 84.0 30.1 49.4 11.99 0.25 8.9 346 0.00 78.2 73.3 12.1 12:03 2 11.65
2014-08-1512:00 85.7 27.4 48.3 11.50 0.54 5.8 0 0.00 78.1 73.2 14.3 11:59 349 11.61
2014-08-1511:55 84.7 28.5 48.5 11.60 1.37 6.2 17 0.00 78.0 73.1 8.3 11:52 12 11.64
2014-08-1511:50 83.9 29.5 48.8 11.72 0.44 5.5 354 0.00 77.8 73.0 7.7 11:48 354 11.65
2014-08-1511:45 84.3 28.1 47.8 11.29 0.35 4.8 343 0.00 77.6 73.0 7.4 11:40 340 11.66
2014-08-1511:40 85.7 27.5 48.4 11.56 0.47 7.2 352 0.00 77.4 72.9 8.6 11:35 351 11.66
2014-08-1511:35 86.2 27.9 49.2 11.90 1.41 7.3 345 0.00 77.2 72.8 9.7 11:33 334 11.65
2014-08-1511:30 86.3 25.6 47.0 10.99 1.02 5.9 6 0.00 77.0 72.7 9.0 11:25 1 11.65
2014-08-1511:25 86.1 27.0 48.3 11.49 1.40 8.0 336 0.00 76.8 72.6 10.0 11:22 298 11.66
2014-08-1511:20 85.8 27.9 48.9 11.75 1.32 8.2 354 0.00 76.6 72.6 9.9 11:16 3 11.65
2014-08-1511:15 85.4 27.4 48.0 11.40 1.00 7.3 341 0.00 76.4 72.5 10.3 11:13 351 11.66

 


Plots for last week.

ARDEC Home


DISCLAIMER

Authorized use of this data is limited to the academic, administrative, research Colorado State University and its Cooperative and Extension facilities. Use is NOT authorized for operational or commercial purposes. The data are provided "as is", and in no event shall the providers be liable for any damage or loss due to missing data or misinterpretation of its content.

 


Return to the CoAgMet Homepage.